Time;durP1;ratioP1;P1;durP2;ratioP2;P2;SDS_P1;SDS_P2;PMS_P1;PMS_P2;Temp;Humidity;BMP_temperature;BMP_pressure;BME280_temperature;BME280_humidity;BME280_pressure;Samples;Min_cycle;Max_cycle;Signal;HPM_P1;HPM_P2
2024/04/11 00:01:22;;;;;;;0.10;0.10;;;;;;;16.02;73.29;101243.94;7357719;19;20124;-63
2024/04/11 00:03:47;;;;;;;0.10;0.10;;;;;;;16.03;72.67;101241.22;7358497;19;20022;-61
2024/04/11 00:06:13;;;;;;;0.10;0.10;;;;;;;16.04;72.99;101268.44;7359256;19;20014;-61
2024/04/11 00:08:38;;;;;;;0.10;0.10;;;;;;;16.05;72.68;101260.47;7355131;19;20074;-62
2024/04/11 00:11:04;;;;;;;0.10;0.10;;;;;;;16.04;72.67;101255.25;7359145;19;20006;-62
2024/04/11 00:13:29;;;;;;;0.10;0.10;;;;;;;16.06;72.80;101266.59;7352933;19;20040;-62
2024/04/11 00:15:56;;;;;;;0.10;0.10;;;;;;;15.94;72.74;101256.50;7360241;19;20022;-61
2024/04/11 00:18:24;;;;;;;0.10;0.10;;;;;;;16.05;72.60;101275.41;7356145;19;20015;-62
2024/04/11 00:20:50;;;;;;;0.10;0.10;;;;;;;16.03;72.97;101277.25;7368001;19;20023;-62
2024/04/11 00:23:16;;;;;;;0.10;0.10;;;;;;;16.04;72.64;101278.97;7365768;19;20025;-62
2024/04/11 00:25:42;;;;;;;0.10;0.10;;;;;;;15.95;72.79;101279.31;7361833;19;20015;-62
2024/04/11 00:28:09;;;;;;;0.10;0.10;;;;;;;16.02;72.77;101281.69;7359150;19;20018;-62
2024/04/11 00:30:36;;;;;;;0.10;0.10;;;;;;;16.01;72.62;101286.97;7368835;19;20006;-61
2024/04/11 00:33:01;;;;;;;0.10;0.10;;;;;;;16.04;72.48;101310.59;7352434;19;20018;-61
2024/04/11 00:35:27;;;;;;;0.10;0.10;;;;;;;16.02;72.31;101312.44;7364524;19;20010;-61
2024/04/11 00:37:53;;;;;;;0.10;0.10;;;;;;;16.02;72.92;101322.97;7361621;19;20346;-62
2024/04/11 00:40:20;;;;;;;0.10;0.10;;;;;;;15.98;72.68;101326.63;7364744;19;20018;-62
2024/04/11 00:42:45;;;;;;;0.10;0.10;;;;;;;16.02;72.70;101341.41;7365391;19;20022;-63
2024/04/11 00:45:10;;;;;;;0.10;0.10;;;;;;;16.01;73.04;101337.03;7363719;19;20665;-61
2024/04/11 00:47:36;;;;;;;0.10;0.10;;;;;;;16.01;73.18;101329.97;7365903;19;20033;-62
2024/04/11 00:50:02;;;;;;;0.10;0.10;;;;;;;16.04;72.59;101331.66;7360678;19;20021;-62
2024/04/11 00:52:29;;;;;;;0.10;0.10;;;;;;;15.92;72.65;101300.50;7366848;19;20483;-61
2024/04/11 00:54:56;;;;;;;0.10;0.10;;;;;;;16.05;72.50;101328.97;7362764;19;20014;-62
2024/04/11 00:57:24;;;;;;;0.10;0.10;;;;;;;16.04;72.24;101324.63;7363715;19;20010;-62
2024/04/11 00:59:49;;;;;;;;;;;;;;;16.09;71.61;101327.94;7364220;19;20013;-63
2024/04/11 01:02:15;;;;;;;0.10;0.10;;;;;;;16.04;71.98;101321.13;7360256;19;19919;-62
2024/04/11 01:04:40;;;;;;;0.10;0.10;;;;;;;15.88;72.25;101298.88;7365219;19;20022;-62
2024/04/11 01:07:11;;;;;;;0.10;0.10;;;;;;;16.02;72.00;101325.59;7364948;19;20081;-62
2024/04/11 01:09:44;;;;;;;0.10;0.10;;;;;;;16.01;72.11;101329.13;7348847;19;20010;-62
2024/04/11 01:12:14;;;;;;;0.10;0.10;;;;;;;15.96;72.51;101334.56;7364231;19;20006;-62
2024/04/11 01:14:45;;;;;;;0.10;0.10;;;;;;;15.97;72.15;101344.19;7362966;19;20086;-62
2024/04/11 01:17:15;;;;;;;0.10;0.10;;;;;;;15.94;72.38;101351.34;7363952;19;20017;-62
2024/04/11 01:19:45;;;;;;;0.10;0.10;;;;;;;15.92;72.63;101358.44;7361910;19;20032;-62
2024/04/11 01:22:10;;;;;;;0.13;0.13;;;;;;;15.87;72.50;101361.25;7360762;19;20006;-62
2024/04/11 01:24:42;;;;;;;0.10;0.10;;;;;;;15.88;72.74;101362.09;7360791;19;20027;-62
2024/04/11 01:27:09;;;;;;;0.17;0.17;;;;;;;15.86;72.63;101366.53;7364605;19;20014;-63
2024/04/11 01:29:38;;;;;;;0.10;0.10;;;;;;;15.84;73.03;101350.78;7349741;19;20462;-63
2024/04/11 01:32:08;;;;;;;0.10;0.10;;;;;;;15.84;72.81;101350.78;7358315;19;20014;-63
2024/04/11 01:34:34;;;;;;;0.00;0.00;;;;;;;15.76;73.13;101334.38;7359199;19;20712;-62
2024/04/11 01:36:59;;;;;;;0.10;0.10;;;;;;;15.83;72.53;101344.66;7363592;19;20492;-62
2024/04/11 01:39:25;;;;;;;0.10;0.10;;;;;;;15.83;72.98;101344.66;7360524;19;20011;-62
2024/04/11 01:41:51;;;;;;;0.10;0.10;;;;;;;15.83;72.47;101334.13;7363183;19;20010;-61
2024/04/11 01:44:16;;;;;;;0.10;0.10;;;;;;;15.80;72.70;101326.31;7366119;19;20014;-62
2024/04/11 01:46:42;;;;;;;0.10;0.10;;;;;;;15.80;72.51;101338.63;7357923;19;20007;-62
2024/04/11 01:49:11;;;;;;;0.10;0.10;;;;;;;15.80;72.58;101344.75;7359520;19;20048;-62
2024/04/11 01:51:36;;;;;;;0.10;0.10;;;;;;;15.79;72.40;101348.31;7355684;19;20014;-62
2024/04/11 01:54:08;;;;;;;0.13;0.13;;;;;;;15.80;72.51;101365.81;7364016;19;20473;-62
2024/04/11 01:56:36;;;;;;;0.10;0.10;;;;;;;15.77;72.65;101365.94;7362028;19;20010;-61
2024/04/11 01:59:03;;;;;;;0.10;0.10;;;;;;;15.77;73.04;101367.72;7360919;19;20041;-62
2024/04/11 02:01:34;;;;;;;0.10;0.10;;;;;;;15.78;72.67;101378.19;7357730;19;20010;-62
2024/04/11 02:04:05;;;;;;;0.10;0.10;;;;;;;15.76;72.53;101380.03;7366020;19;20117;-62
2024/04/11 02:06:32;;;;;;;0.20;0.20;;;;;;;15.78;72.53;101387.88;7353808;19;20014;-62
2024/04/11 02:09:05;;;;;;;0.10;0.10;;;;;;;15.78;72.42;101396.63;7364714;19;20347;-62
2024/04/11 02:11:34;;;;;;;0.10;0.10;;;;;;;15.80;72.24;101413.22;7365522;19;20522;-62
2024/04/11 02:14:00;;;;;;;0.10;0.10;;;;;;;15.79;72.64;101432.59;7338118;19;20518;-62
2024/04/11 02:16:28;;;;;;;0.10;0.10;;;;;;;15.81;72.40;101430.78;7360507;19;20086;-61
2024/04/11 02:18:55;;;;;;;0.10;0.10;;;;;;;15.80;72.21;101439.56;7366731;19;20015;-63
2024/04/11 02:21:20;;;;;;;0.10;0.10;;;;;;;15.79;72.08;101437.84;7364258;19;20025;-62
2024/04/11 02:23:46;;;;;;;0.10;0.10;;;;;;;15.75;71.99;101438.84;7361379;19;20892;-62
2024/04/11 02:26:13;;;;;;;0.10;0.10;;;;;;;15.81;72.17;101445.69;7364937;19;20003;-62
2024/04/11 02:28:38;;;;;;;0.10;0.10;;;;;;;15.79;72.01;101447.53;7362480;19;20006;-62
2024/04/11 02:31:04;;;;;;;0.10;0.10;;;;;;;15.77;72.20;101444.09;7362361;19;20038;-62
2024/04/11 02:33:31;;;;;;;0.10;0.10;;;;;;;15.79;72.08;101447.53;7363069;19;20010;-61
2024/04/11 02:35:57;;;;;;;0.10;0.10;;;;;;;15.78;71.84;101449.31;7365118;19;20077;-62
2024/04/11 02:38:25;;;;;;;0.10;0.10;;;;;;;15.78;71.97;101467.75;7364235;19;20010;-62
2024/04/11 02:40:51;;;;;;;0.10;0.10;;;;;;;15.78;71.99;101461.63;7362942;19;20018;-61
2024/04/11 02:43:18;;;;;;;0.10;0.10;;;;;;;15.77;71.39;101460.75;7361133;19;20011;-63
2024/04/11 02:45:43;;;;;;;0.20;0.20;;;;;;;15.78;71.35;101467.75;7365092;19;20720;-62
2024/04/11 02:48:09;;;;;;;0.10;0.10;;;;;;;15.78;71.36;101467.75;7359569;19;20010;-61
2024/04/11 02:50:35;;;;;;;0.10;0.10;;;;;;;15.74;71.24;101466.09;7364001;19;20010;-62
2024/04/11 02:53:00;;;;;;;0.10;0.10;;;;;;;15.75;71.14;101473.09;7361852;19;19999;-62
2024/04/11 02:55:28;;;;;;;0.10;0.10;;;;;;;15.79;70.32;101481.75;7364608;19;20038;-62
2024/04/11 02:57:54;;;;;;;0.10;0.10;;;;;;;15.78;70.74;101482.69;7359672;19;20028;-61
2024/04/11 03:00:19;;;;;;;0.10;0.10;;;;;;;15.77;70.57;101480.97;7363363;19;20018;-63
2024/04/11 03:02:45;;;;;;;0.10;0.10;;;;;;;15.77;70.57;101481.81;7361296;19;20002;-62
2024/04/11 03:05:12;;;;;;;0.15;0.15;;;;;;;15.78;69.92;101483.53;7358503;19;20029;-62
2024/04/11 03:07:39;;;;;;;0.10;0.10;;;;;;;15.78;70.14;101473.00;7361610;19;20028;-61
2024/04/11 03:10:07;;;;;;;0.10;0.10;;;;;;;15.77;70.33;101468.66;7362479;19;20978;-61
2024/04/11 03:12:33;;;;;;;;;;;;;;;15.85;70.36;101472.81;7365759;19;20905;-62
2024/04/11 03:14:59;;;;;;;0.10;0.10;;;;;;;15.80;70.11;101465.91;7340512;19;20315;-62
2024/04/11 03:17:25;;;;;;;0.10;0.10;;;;;;;15.80;70.00;101468.53;7358581;19;20024;-62
2024/04/11 03:19:50;;;;;;;0.10;0.10;;;;;;;15.77;70.06;101476.56;7363514;19;20014;-62
2024/04/11 03:22:16;;;;;;;0.10;0.10;;;;;;;15.76;70.29;101476.59;7363599;19;19998;-62
2024/04/11 03:24:44;;;;;;;0.10;0.10;;;;;;;15.75;70.46;101483.63;7361799;19;20014;-62
2024/04/11 03:27:10;;;;;;;0.10;0.10;;;;;;;15.74;70.29;101487.19;7361716;19;20050;-62
2024/04/11 03:29:35;;;;;;;0.10;0.10;;;;;;;15.76;70.07;101490.63;7361588;19;20489;-63
2024/04/11 03:32:01;;;;;;;0.10;0.10;;;;;;;15.73;70.33;101501.25;7362536;19;20014;-62
2024/04/11 03:34:27;;;;;;;0.15;0.15;;;;;;;15.73;70.28;101474.06;7358763;19;20010;-62
2024/04/11 03:36:54;;;;;;;0.20;0.20;;;;;;;15.76;70.52;101484.47;7364382;19;20040;-62
2024/04/11 03:39:20;;;;;;;0.10;0.10;;;;;;;15.74;70.23;101489.81;7363066;19;20031;-62
2024/04/11 03:41:48;;;;;;;0.10;0.10;;;;;;;15.75;70.09;101504.69;7361805;19;20038;-62
2024/04/11 03:44:14;;;;;;;0.10;0.10;;;;;;;15.74;69.73;101508.25;7364002;19;20032;-61
2024/04/11 03:46:40;;;;;;;0.10;0.10;;;;;;;15.75;70.29;101514.38;7364217;19;20014;-62
2024/04/11 03:49:06;;;;;;;0.10;0.10;;;;;;;15.75;70.31;101524.91;7359393;19;20032;-62
2024/04/11 03:51:38;;;;;;;0.10;0.10;;;;;;;15.74;69.89;101518.78;7360692;19;20014;-61
2024/04/11 03:54:04;;;;;;;0.10;0.10;;;;;;;15.75;69.63;101525.75;7364182;19;20622;-63
2024/04/11 03:56:30;;;;;;;0.10;0.10;;;;;;;15.76;69.80;101526.63;7367379;19;20386;-61
2024/04/11 03:58:56;;;;;;;0.10;0.10;;;;;;;15.77;69.49;101537.13;7368744;19;20027;-61
2024/04/11 04:01:24;;;;;;;0.10;0.10;;;;;;;15.76;69.69;101548.56;7365971;19;20011;-63
2024/04/11 04:03:53;;;;;;;0.10;0.10;;;;;;;15.79;69.64;101555.50;7368549;19;20015;-62
2024/04/11 04:06:19;;;;;;;0.10;0.10;;;;;;;15.77;69.53;101566.09;7361310;19;20023;-62
2024/04/11 04:08:48;;;;;;;0.10;0.10;;;;;;;15.79;69.43;101572.16;7368886;19;20010;-61
2024/04/11 04:11:15;;;;;;;0.10;0.10;;;;;;;15.76;69.55;101580.19;7364688;19;20025;-62
2024/04/11 04:13:41;;;;;;;0.15;0.15;;;;;;;15.76;69.61;101574.91;7364926;19;20025;-61
2024/04/11 04:16:11;;;;;;;0.10;0.10;;;;;;;15.79;69.98;101587.97;7369619;19;20015;-62
2024/04/11 04:18:37;;;;;;;0.10;0.10;;;;;;;15.77;69.68;101602.97;7356299;19;20022;-62
2024/04/11 04:21:02;;;;;;;0.10;0.10;;;;;;;15.76;69.74;101601.25;7371409;19;20017;-61
2024/04/11 04:23:28;;;;;;;0.10;0.10;;;;;;;15.62;69.76;101584.09;7350337;19;20090;-62
2024/04/11 04:26:00;;;;;;;0.10;0.10;;;;;;;15.77;70.09;101618.75;7370243;19;20565;-62
2024/04/11 04:28:32;;;;;;;0.10;0.10;;;;;;;15.77;70.16;101624.03;7369655;19;20022;-62
2024/04/11 04:31:30;;;;;;;0.10;0.10;;;;;;;15.82;69.84;101627.41;7370152;19;20465;-62
2024/04/11 04:33:57;;;;;;;0.10;0.10;;;;;;;15.78;69.80;101625.75;7368334;19;20074;-62
2024/04/11 04:36:33;;;;;;;0.10;0.10;;;;;;;15.80;69.74;101634.47;7367463;19;20015;-61
2024/04/11 04:39:04;;;;;;;0.17;0.17;;;;;;;15.79;69.78;101631.88;7369857;19;20780;-62
2024/04/11 04:41:30;;;;;;;0.10;0.10;;;;;;;15.79;69.86;101645.03;7367964;19;20032;-61
2024/04/11 04:43:57;;;;;;;0.10;0.10;;;;;;;15.76;69.70;101627.59;7368209;19;20015;-63
2024/04/11 04:46:23;;;;;;;0.10;0.10;;;;;;;15.80;69.49;101638.88;7361613;19;20376;-62
2024/04/11 04:48:50;;;;;;;0.20;0.20;;;;;;;15.79;69.63;101632.75;7369095;19;20026;-62
2024/04/11 04:51:18;;;;;;;0.10;0.10;;;;;;;15.79;69.32;101643.28;7364591;19;20592;-62
2024/04/11 04:53:44;;;;;;;0.10;0.10;;;;;;;15.79;69.50;101640.63;7366922;19;20530;-62
2024/04/11 04:56:11;;;;;;;0.10;0.10;;;;;;;15.79;69.57;101659.06;7365721;19;20022;-62
2024/04/11 04:58:37;;;;;;;0.20;0.20;;;;;;;15.79;69.42;101666.13;7365575;19;20006;-62
2024/04/11 05:01:04;;;;;;;0.10;0.10;;;;;;;15.79;69.10;101664.34;7367826;19;20038;-61
2024/04/11 05:03:33;;;;;;;0.10;0.10;;;;;;;15.78;69.37;101673.16;7364468;19;20011;-62
2024/04/11 05:06:02;;;;;;;0.10;0.10;;;;;;;15.63;69.64;101647.25;7369200;19;20461;-62
2024/04/11 05:08:33;;;;;;;0.10;0.10;;;;;;;15.78;69.87;101669.66;7361073;19;20534;-62
2024/04/11 05:10:59;;;;;;;0.10;0.10;;;;;;;15.77;70.01;101676.69;7369888;19;20025;-62
2024/04/11 05:13:29;;;;;;;0.10;0.10;;;;;;;15.78;69.68;101686.31;7363420;19;20433;-62
2024/04/11 05:16:06;;;;;;;0.10;0.10;;;;;;;15.80;69.80;101671.31;7364764;19;20052;-62
2024/04/11 05:18:41;;;;;;;0.10;0.10;;;;;;;15.68;69.47;101655.91;7365047;19;20363;-62
2024/04/11 05:21:12;;;;;;;0.10;0.10;;;;;;;15.81;69.01;101675.72;7365515;19;20014;-62
2024/04/11 05:23:42;;;;;;;0.20;0.20;;;;;;;15.80;69.02;101689.75;7365870;19;20007;-62
2024/04/11 05:26:09;;;;;;;0.17;0.17;;;;;;;15.78;69.10;101681.06;7369440;19;20014;-61
2024/04/11 05:28:40;;;;;;;0.10;0.10;;;;;;;15.77;69.22;101681.97;7358721;19;20406;-62
2024/04/11 05:31:06;;;;;;;0.15;0.15;;;;;;;15.77;68.94;101679.34;7368427;19;20011;-62
2024/04/11 05:33:36;;;;;;;0.10;0.10;;;;;;;15.79;69.46;101679.28;7366791;19;20017;-61
2024/04/11 05:36:06;;;;;;;0.10;0.10;;;;;;;15.77;68.48;101681.13;7368911;19;20122;-61
2024/04/11 05:38:37;;;;;;;0.10;0.10;;;;;;;15.56;68.97;101646.56;7365610;19;20018;-61
2024/04/11 05:41:04;;;;;;;0.10;0.10;;;;;;;15.76;68.50;101684.63;7358771;19;20021;-62
2024/04/11 05:43:30;;;;;;;0.10;0.10;;;;;;;15.74;68.99;101687.31;7365528;19;20029;-61
2024/04/11 05:45:57;;;;;;;0.20;0.20;;;;;;;15.74;68.96;101697.84;7363134;19;20861;-61
2024/04/11 05:48:23;;;;;;;0.20;0.20;;;;;;;15.73;68.67;101698.75;7361017;19;20014;-62
2024/04/11 05:50:50;;;;;;;0.10;0.10;;;;;;;15.73;68.75;101690.88;7366631;19;20017;-62
2024/04/11 05:53:16;;;;;;;0.00;0.00;;;;;;;15.73;68.26;101722.47;7366127;19;20018;-63
2024/04/11 05:55:42;;;;;;;0.10;0.10;;;;;;;15.72;68.15;101720.75;7362760;19;20581;-62
2024/04/11 05:58:08;;;;;;;0.10;0.10;;;;;;;15.64;68.08;101706.91;7357436;19;20002;-63
2024/04/11 06:00:33;;;;;;;0.10;0.10;;;;;;;15.70;68.44;101714.63;7364625;19;20003;-62
2024/04/11 06:03:08;;;;;;;0.10;0.10;;;;;;;15.70;68.32;101716.41;7365659;19;20566;-62
2024/04/11 06:05:38;;;;;;;0.10;0.10;;;;;;;15.71;68.66;101719.03;7361982;19;20011;-62
2024/04/11 06:08:08;;;;;;;0.10;0.10;;;;;;;15.71;67.99;101719.03;7360566;19;20067;-63
2024/04/11 06:10:37;;;;;;;0.10;0.10;;;;;;;15.72;67.94;101726.00;7364759;19;20483;-62
2024/04/11 06:13:02;;;;;;;0.10;0.10;;;;;;;15.68;68.70;101729.63;7361034;19;20019;-61
2024/04/11 06:15:28;;;;;;;0.10;0.10;;;;;;;15.71;68.64;101744.47;7363598;19;20466;-61
2024/04/11 06:17:53;;;;;;;0.10;0.10;;;;;;;15.70;68.56;101748.00;7359013;19;20090;-61
2024/04/11 06:20:24;;;;;;;0.13;0.13;;;;;;;15.72;68.66;101752.34;7350335;19;20031;-61
2024/04/11 06:22:52;;;;;;;0.10;0.10;;;;;;;15.71;69.00;101742.72;7361870;19;20010;-61
2024/04/11 06:25:23;;;;;;;0.10;0.10;;;;;;;15.77;68.23;101745.19;7361991;19;20025;-62
2024/04/11 06:27:50;;;;;;;0.10;0.10;;;;;;;15.76;68.79;101746.09;7357293;19;20031;-62
2024/04/11 06:30:19;;;;;;;0.10;0.10;;;;;;;15.76;69.01;101738.19;7358336;19;20014;-61
2024/04/11 06:32:46;;;;;;;0.20;0.20;;;;;;;15.73;69.08;101732.13;7364158;19;20014;-62
2024/04/11 06:35:13;;;;;;;0.10;0.10;;;;;;;15.80;68.91;101734.53;7363497;19;20086;-62
2024/04/11 06:37:44;;;;;;;0.10;0.10;;;;;;;15.82;68.56;101735.38;7362414;19;20019;-62
2024/04/11 06:40:13;;;;;;;0.10;0.10;;;;;;;15.65;69.10;101719.16;7362151;19;20038;-61
2024/04/11 06:42:46;;;;;;;0.10;0.10;;;;;;;15.87;69.02;101742.28;7360176;19;20769;-62
2024/04/11 06:45:16;;;;;;;0.10;0.10;;;;;;;15.89;69.18;101748.38;7366355;19;20089;-62
2024/04/11 06:47:45;;;;;;;0.10;0.10;;;;;;;15.90;69.19;101760.63;7357373;19;20018;-62
2024/04/11 06:50:10;;;;;;;0.00;0.00;;;;;;;15.92;69.29;101769.38;7355181;19;20025;-62
2024/04/11 06:52:36;;;;;;;0.10;0.10;;;;;;;15.94;69.51;101770.19;7363676;19;20367;-62
2024/04/11 06:55:05;;;;;;;0.10;0.10;;;;;;;16.00;69.11;101775.28;7362995;19;20014;-62
2024/04/11 06:57:37;;;;;;;0.10;0.10;;;;;;;16.01;68.66;101766.44;7360104;19;20022;-63
2024/04/11 07:00:03;;;;;;;0.10;0.10;;;;;;;16.05;69.17;101770.72;7361853;19;20006;-61
2024/04/11 07:02:30;;;;;;;0.10;0.10;;;;;;;16.08;68.66;101770.66;7362451;19;20014;-62
2024/04/11 07:04:58;;;;;;;0.10;0.10;;;;;;;16.12;68.17;101776.69;7360981;19;20018;-62
2024/04/11 07:07:27;;;;;;;0.13;0.13;;;;;;;16.13;68.52;101779.31;7358093;19;20351;-63
2024/04/11 07:09:55;;;;;;;0.10;0.10;;;;;;;16.15;68.65;101777.47;7363851;19;20455;-61
2024/04/11 07:12:28;;;;;;;0.10;0.10;;;;;;;16.06;68.13;101761.91;7363061;19;20451;-62
2024/04/11 07:14:55;;;;;;;0.10;0.10;;;;;;;16.23;68.51;101775.50;7351057;19;20018;-62
2024/04/11 07:17:27;;;;;;;0.10;0.10;;;;;;;16.23;68.13;101770.22;7360877;19;20473;-63
2024/04/11 07:19:58;;;;;;;0.10;0.10;;;;;;;16.12;68.05;101753.88;7355813;19;20040;-61
2024/04/11 07:22:24;;;;;;;0.20;0.20;;;;;;;16.26;67.62;101775.38;7354722;19;20006;-62
2024/04/11 07:24:50;;;;;;;0.10;0.10;;;;;;;16.22;67.37;101768.50;7361634;19;20010;-62
2024/04/11 07:27:17;;;;;;;0.10;0.10;;;;;;;16.29;67.63;101780.56;7356982;19;20018;-62
2024/04/11 07:29:45;;;;;;;0.10;0.10;;;;;;;16.30;67.77;101781.44;7358854;19;20014;-62
2024/04/11 07:32:11;;;;;;;0.10;0.10;;;;;;;16.31;67.06;101783.16;7363355;19;20701;-62
2024/04/11 07:34:37;;;;;;;0.20;0.20;;;;;;;16.33;66.73;101786.63;7360687;19;20015;-61
2024/04/11 07:37:02;;;;;;;0.10;0.10;;;;;;;16.22;67.35;101784.31;7360875;19;20392;-61
2024/04/11 07:39:29;;;;;;;0.10;0.10;;;;;;;16.38;67.24;101799.69;7361227;19;20024;-62
2024/04/11 07:42:18;;;;;;;0.10;0.10;;;;;;;16.39;66.98;101811.94;7360045;19;20011;-61
2024/04/11 07:44:43;;;;;;;0.10;0.10;;;;;;;16.41;66.97;101808.34;7360025;19;20010;-62
2024/04/11 07:47:08;;;;;;;0.10;0.10;;;;;;;16.44;66.93;101820.59;7333338;19;20501;-61
2024/04/11 07:49:35;;;;;;;0.10;0.10;;;;;;;16.47;67.10;101833.66;7359250;19;20091;-62
2024/04/11 07:52:01;;;;;;;0.10;0.10;;;;;;;16.47;66.85;101831.03;7358149;19;20018;-62
2024/04/11 07:54:29;;;;;;;0.10;0.10;;;;;;;16.48;66.36;101830.13;7358251;19;20019;-62
2024/04/11 07:56:55;;;;;;;0.10;0.10;;;;;;;16.48;66.83;101823.09;7354647;19;20014;-61
2024/04/11 07:59:22;;;;;;;0.10;0.10;;;;;;;16.42;66.65;101809.19;7365327;19;20011;-62
2024/04/11 08:01:47;;;;;;;0.10;0.10;;;;;;;16.53;66.66;101815.03;7360718;19;20010;-61
2024/04/11 08:04:12;;;;;;;0.10;0.10;;;;;;;16.56;66.07;101812.31;7361554;19;20474;-62
2024/04/11 08:06:39;;;;;;;0.10;0.10;;;;;;;16.58;66.71;101813.13;7364364;19;20648;-63
2024/04/11 08:09:06;;;;;;;0.10;0.10;;;;;;;16.61;66.67;101813.88;7357318;19;20046;-62
2024/04/11 08:11:34;;;;;;;;;;;;;;;16.76;67.60;101812.59;7362632;19;20031;-62
2024/04/11 08:14:03;;;;;;;0.10;0.10;;;;;;;16.78;65.62;101816.06;7362910;19;20647;-61
2024/04/11 08:16:29;;;;;;;0.10;0.10;;;;;;;16.81;66.30;101809.81;7360264;19;20020;-61
2024/04/11 08:18:55;;;;;;;0.10;0.10;;;;;;;16.85;65.93;101817.59;7357839;19;20018;-62
2024/04/11 08:21:20;;;;;;;0.10;0.10;;;;;;;16.91;65.34;101821.81;7354006;19;20454;-62
2024/04/11 08:23:46;;;;;;;0.10;0.10;;;;;;;16.94;65.36;101815.59;7359039;19;20482;-62
2024/04/11 08:26:12;;;;;;;0.10;0.10;;;;;;;16.97;65.56;101820.75;7363549;19;20006;-61
2024/04/11 08:28:39;;;;;;;0.10;0.10;;;;;;;17.01;65.56;101843.50;7359440;19;20042;-62
2024/04/11 08:31:06;;;;;;;0.10;0.10;;;;;;;17.05;65.47;101855.69;7360757;19;20066;-63
2024/04/11 08:33:35;;;;;;;0.10;0.10;;;;;;;17.09;65.17;101836.22;7360201;19;20046;-62
2024/04/11 08:36:03;;;;;;;0.10;0.10;;;;;;;17.13;65.43;101835.19;7360378;19;20391;-63
2024/04/11 08:38:35;;;;;;;0.10;0.10;;;;;;;17.16;64.91;101813.13;7363795;19;20730;-61
2024/04/11 08:41:07;;;;;;;0.10;0.10;;;;;;;17.27;65.32;101819.78;7365836;19;20018;-63
2024/04/11 08:43:35;;;;;;;0.10;0.10;;;;;;;17.30;64.34;101801.19;7373433;19;20372;-61
2024/04/11 08:46:06;;;;;;;0.10;0.10;;;;;;;17.28;64.29;101784.53;7364241;19;20010;-62
2024/04/11 08:48:35;;;;;;;0.10;0.10;;;;;;;17.48;64.07;101812.03;7367676;19;20086;-62
2024/04/11 08:51:09;;;;;;;0.00;0.00;;;;;;;17.63;65.01;101816.81;7364727;19;20485;-62
2024/04/11 08:53:39;;;;;;;0.10;0.10;;;;;;;17.79;63.93;101802.22;7368229;19;20689;-62
2024/04/11 08:56:08;;;;;;;0.10;0.10;;;;;;;17.79;63.78;101770.50;7367868;19;20478;-62
2024/04/11 08:58:37;;;;;;;0.10;0.10;;;;;;;18.18;63.21;101803.47;7365115;19;20018;-63
2024/04/11 09:01:06;;;;;;;0.10;0.10;;;;;;;18.42;63.55;101803.41;7368675;19;20010;-62
2024/04/11 09:03:32;;;;;;;0.10;0.10;;;;;;;18.60;61.70;101795.66;7367072;19;20340;-63
2024/04/11 09:05:58;;;;;;;0.10;0.10;;;;;;;18.75;61.18;101813.63;7370530;19;20013;-62
2024/04/11 09:08:25;;;;;;;0.10;0.10;;;;;;;18.84;61.27;101812.41;7363551;19;20007;-63
2024/04/11 09:10:54;;;;;;;0.10;0.10;;;;;;;18.83;60.86;101816.84;7368004;19;20121;-62
2024/04/11 09:13:23;;;;;;;0.10;0.10;;;;;;;18.87;60.47;101821.09;7361332;19;20018;-61
2024/04/11 09:16:00;;;;;;;0.10;0.10;;;;;;;18.92;61.59;101829.72;7369457;19;20010;-62
2024/04/11 09:18:27;;;;;;;0.10;0.10;;;;;;;18.89;61.06;101843.06;7366818;19;20051;-62
2024/04/11 09:21:05;;;;;;;0.10;0.10;;;;;;;19.00;62.23;101841.78;7364158;19;20569;-63
2024/04/11 09:23:43;;;;;;;0.17;0.17;;;;;;;19.06;61.66;101836.25;7365773;19;20018;-61
2024/04/11 09:26:10;;;;;;;0.10;0.10;;;;;;;19.12;60.90;101822.78;7368004;19;20405;-61
2024/04/11 09:28:36;;;;;;;;;;;;;;;19.33;63.14;101816.59;7358349;19;20486;-62
2024/04/11 09:31:04;;;;;;;0.10;0.10;;;;;;;19.36;60.39;101840.31;7370223;19;19922;-61
2024/04/11 09:33:31;;;;;;;0.10;0.10;;;;;;;19.48;61.40;101827.50;7367061;19;20014;-62
2024/04/11 09:36:03;;;;;;;0.10;0.10;;;;;;;19.65;58.82;101822.34;7369726;19;20010;-62
2024/04/11 09:38:29;;;;;;;0.10;0.10;;;;;;;19.72;58.92;101830.91;7361987;19;20035;-62
2024/04/11 09:40:55;;;;;;;0.10;0.10;;;;;;;19.87;58.23;101820.53;7363759;19;20528;-62
2024/04/11 09:43:27;;;;;;;0.10;0.10;;;;;;;20.04;58.03;101829.50;7368224;19;20010;-62
2024/04/11 09:45:56;;;;;;;0.10;0.10;;;;;;;20.24;58.70;101818.88;7364600;19;20030;-63
2024/04/11 09:48:24;;;;;;;0.10;0.10;;;;;;;20.51;58.57;101831.84;7365815;19;20018;-62
2024/04/11 09:50:51;;;;;;;0.10;0.10;;;;;;;20.82;57.82;101825.94;7362559;19;20023;-62
2024/04/11 09:53:26;;;;;;;0.10;0.10;;;;;;;21.10;56.65;101825.50;7359111;19;20034;-62
2024/04/11 09:55:59;;;;;;;0.10;0.10;;;;;;;21.50;59.51;101825.25;7364635;19;20021;-62
2024/04/11 09:58:29;;;;;;;0.10;0.10;;;;;;;21.79;57.23;101841.50;7365702;19;20558;-62
2024/04/11 10:01:04;;;;;;;0.10;0.10;;;;;;;22.08;55.28;101844.44;7362539;19;20002;-62
2024/04/11 10:03:30;;;;;;;0.10;0.10;;;;;;;;;;7361253;19;20046;-62
2024/04/11 10:06:00;;;;;;;0.10;0.10;;;;;;;22.44;53.67;101853.16;7364333;19;20842;-63
2024/04/11 10:08:33;;;;;;;0.10;0.10;;;;;;;22.50;54.13;101850.16;7359830;19;20359;-62
2024/04/11 10:11:03;;;;;;;0.00;0.00;;;;;;;22.47;53.91;101850.34;7360302;19;20720;-61
2024/04/11 10:13:38;;;;;;;0.10;0.10;;;;;;;22.41;53.36;101840.03;7362430;19;20092;-62
2024/04/11 10:16:21;;;;;;;0.10;0.10;;;;;;;22.46;53.59;101850.44;7357962;19;20769;-62
2024/04/11 10:19:04;;;;;;;0.10;0.10;;;;;;;22.46;54.28;101864.59;7347456;19;20046;-61
2024/04/11 10:21:33;;;;;;;0.10;0.10;;;;;;;22.54;52.63;101878.34;7359850;19;20808;-61
2024/04/11 10:24:14;;;;;;;0.17;0.17;;;;;;;22.80;54.09;101871.56;7358047;19;20014;-61
2024/04/11 10:26:42;;;;;;;0.20;0.20;;;;;;;22.86;52.96;101867.75;7362833;19;20011;-62
2024/04/11 10:29:18;;;;;;;0.10;0.10;;;;;;;23.17;52.58;101882.03;7355684;19;20025;-62
2024/04/11 10:31:52;;;;;;;0.20;0.20;;;;;;;23.40;53.06;101878.88;7361587;19;20035;-63
2024/04/11 10:34:25;;;;;;;0.17;0.17;;;;;;;23.59;51.91;101856.50;7364240;19;20022;-62
2024/04/11 10:36:54;;;;;;;0.10;0.10;;;;;;;23.92;49.47;101858.97;7353708;19;20020;-62
2024/04/11 10:39:21;;;;;;;0.10;0.10;;;;;;;24.17;48.85;101858.34;7359224;19;19998;-62
2024/04/11 10:41:51;;;;;;;0.10;0.10;;;;;;;24.48;50.79;101858.22;7358192;19;20010;-62
2024/04/11 10:44:17;;;;;;;0.10;0.10;;;;;;;24.79;49.87;101857.13;7359874;19;20013;-62
2024/04/11 10:46:44;;;;;;;0.10;0.10;;;;;;;25.15;48.47;101858.38;7360514;19;20824;-62
2024/04/11 10:49:15;;;;;;;0.10;0.10;;;;;;;25.55;49.05;101861.09;7353924;19;20587;-62
2024/04/11 10:51:44;;;;;;;0.10;0.10;;;;;;;25.87;49.59;101850.88;7363070;19;20962;-62
2024/04/11 10:54:09;;;;;;;0.10;0.10;;;;;;;26.09;46.19;101850.25;7359100;19;20114;-62
2024/04/11 10:56:43;;;;;;;0.00;0.00;;;;;;;26.47;47.56;101844.91;7361516;19;20438;-62
2024/04/11 10:59:28;;;;;;;0.10;0.10;;;;;;;26.58;44.21;101842.28;7352749;19;20078;-62
2024/04/11 11:02:08;;;;;;;0.10;0.10;;;;;;;26.70;43.42;101850.41;7350168;19;20018;-62
2024/04/11 11:04:35;;;;;;;0.10;0.10;;;;;;;26.72;42.93;101837.78;7362203;19;21138;-62
2024/04/11 11:07:09;;;;;;;;;;;;;;;26.96;49.40;101829.72;7356123;19;20006;-62
2024/04/11 11:09:37;;;;;;;0.00;0.00;;;;;;;26.92;42.47;101839.84;7354920;19;19911;-62
2024/04/11 11:12:03;;;;;;;0.08;0.08;;;;;;;26.99;42.36;101851.81;7352667;19;20010;-62
2024/04/11 11:14:29;;;;;;;0.10;0.10;;;;;;;27.05;43.32;101856.72;7363701;19;20014;-62
2024/04/11 11:17:01;;;;;;;0.10;0.10;;;;;;;27.04;43.66;101846.97;7350310;19;20011;-62
2024/04/11 11:19:30;;;;;;;0.10;0.10;;;;;;;27.28;41.77;101867.63;7354261;19;20015;-62
2024/04/11 11:21:59;;;;;;;0.00;0.00;;;;;;;27.32;40.92;101847.59;7355095;19;20006;-62
2024/04/11 11:24:27;;;;;;;0.00;0.00;;;;;;;27.31;41.15;101851.28;7355855;19;20017;-61
2024/04/11 11:26:59;;;;;;;0.10;0.10;;;;;;;27.37;43.03;101834.72;7360525;19;20042;-62
2024/04/11 11:29:26;;;;;;;0.00;0.00;;;;;;;27.33;42.44;101833.25;7358763;19;20010;-62
2024/04/11 11:32:01;;;;;;;0.10;0.10;;;;;;;27.45;41.89;101837.69;7354826;19;20014;-62